Lake Havasu City, AZ (86405)

1:25 PM MST on September 30, 2014 (GMT -0700)
PVS @ Gatewood | Change Station
CLOSE
Current Station
Personal Weather Station
Location: Lake Havasu City, AZ
Elevation: 1076 ft
Nearby Weather Stations

Elev 1076 ft 34.50 °N, 114.30 °W | Updated 9 seconds ago

Clear
Clear
90.7 °F
Feels Like 87 °F
N
2.0
Wind Variable Wind from WSW
Gusts 4.0 mph

Today
High -- | Low -- °F
--% Chance of Precip.
Yesterday
High -- | Low -- °F
Precip. -- in
6:31 AM 6:22 PM
Waxing Crescent, 39% visible
Pressure 29.73 in
Visibility 10.0 miles
Clouds Clear
Heat Index 87 °F
Dew Point 38 °F
Humidity 16%
Rainfall 0.00 in
Snow Depth 0 in , 1 in , 0 in
UV 8 out of 12
Pollen 5.70 out of 12
Air Quality Not available.
Flu Activity Not available.
METAR KEED 301956Z AUTO 09006KT 10SM CLR 32/03 A2982 RMK AO2 SLP066 T03220028

More Conditions Fewer Conditions

Pressure 29.73 in
Visibility 10.0 miles
Clouds Clear
Heat Index 87 °F
Dew Point 38 °F
Humidity 16%
Rainfall 0.00 in
Snow Depth 0 in , 1 in , 0 in
UV 8 out of 12
Pollen 5.70 out of 12
Air Quality Not available.
Flu Activity Not available.
METAR KEED 301956Z AUTO 09006KT 10SM CLR 32/03 A2982 RMK AO2 SLP066 T03220028

More Conditions Fewer Conditions

10-Day Weather Forecast

Almanac

Astronomy

Sep. 30, 2014 Rise Set
Actual Time 6:31 AM MST 6:22 PM MST
Civil Twilight 6:06 AM MST 6:47 PM MST
Nautical Twilight 5:36 AM MST 7:16 PM MST
Astronomical Twilight 5:07 AM MST 7:46 PM MST
Moon 12:31 PM MST 11:07 PM MST
Length of Visible Light 12h 41m
Length of Day
11h 51m
Tomorrow will be 2m 8s shorter.
Waxing Crescent, 39% of the Moon is Illuminated
Today
Waxing Crescent
Oct 1
First Quarter
Oct 8
Full
Oct 15
Last Quarter
Oct 23
New

Today's Extremes

State Highs State Lows

Community

WunderPhotos

Upload Photos

1,757,740 photos uploaded!

Nearby

Snow Depth

Station Depth Elevation
Snowslide Canyon 0 in 9730 ft
Promontory 0 in 7930 ft
Workman Creek 1 in 6900 ft
Coronado Trail 0 in 8400 ft
Beaver Head 21 in 7990 ft

Earthquake Activity

City Distance Mag. Time & Date
No recent earthquake activity has been reported nearby.
Minimum magnitude displayed is 2.5.

Coastal Water Temperatures

Place Temperature
No Stations Reporting

Nearby Weather Stations